Time;durP1;ratioP1;P1;durP2;ratioP2;P2;SDS_P1;SDS_P2;PMS_P1;PMS_P2;Temp;Humidity;BMP_temperature;BMP_pressure;BME280_temperature;BME280_humidity;BME280_pressure;Samples;Min_cycle;Max_cycle;Signal;HPM_P1;HPM_P2
2021/10/18 00:01:17;;;;;;;27.90;19.25;;;;;;;;;;6239864;28;20136;-66
2021/10/18 00:04:18;;;;;;;33.90;20.27;;;;;;;;;;6241445;28;20056;-66
2021/10/18 00:07:21;;;;;;;27.88;19.08;;;;;;;;;;6247720;28;20132;-66
2021/10/18 00:10:22;;;;;;;31.10;19.85;;;;;;;;;;6246477;28;20064;-67
2021/10/18 00:13:23;;;;;;;32.60;20.20;;;;;;;;;;6249769;28;20392;-65
2021/10/18 00:16:26;;;;;;;31.60;20.02;;;;;;;;;;6238478;28;20130;-65
2021/10/18 00:19:28;;;;;;;31.55;20.48;;;;;;;;;;6246696;28;20049;-65
2021/10/18 00:22:29;;;;;;;30.98;19.83;;;;;;;;;;6243417;28;20091;-66
2021/10/18 00:25:31;;;;;;;31.52;20.17;;;;;;;;;;6237133;28;20140;-66
2021/10/18 00:28:32;;;;;;;30.25;19.27;;;;;;;;;;6250036;28;20516;-66
2021/10/18 00:31:35;;;;;;;29.60;19.73;;;;;;;;;;6242137;28;20036;-65
2021/10/18 00:34:36;;;;;;;30.52;20.05;;;;;;;;;;6255167;28;20041;-65
2021/10/18 00:37:38;;;;;;;29.08;19.30;;;;;;;;;;6231837;28;20059;-64
2021/10/18 00:40:39;;;;;;;30.10;19.92;;;;;;;;;;6236990;28;20045;-66
2021/10/18 00:43:44;;;;;;;31.85;20.30;;;;;;;;;;6249224;28;20179;-65
2021/10/18 00:46:47;;;;;;;34.55;20.95;;;;;;;;;;6233015;28;20486;-65
2021/10/18 00:49:49;;;;;;;32.83;20.13;;;;;;;;;;6250778;28;20146;-64
2021/10/18 00:52:50;;;;;;;32.53;19.17;;;;;;;;;;6237005;28;20549;-65
2021/10/18 00:55:52;;;;;;;33.50;21.00;;;;;;;;;;6236202;28;20685;-65
2021/10/18 00:58:54;;;;;;;30.65;19.30;;;;;;;;;;6252636;28;20055;-65
2021/10/18 01:01:57;;;;;;;35.00;20.70;;;;;;;;;;6231722;28;20045;-64
2021/10/18 01:04:59;;;;;;;31.80;20.90;;;;;;;;;;6240881;28;20053;-65
2021/10/18 01:08:00;;;;;;;32.55;20.65;;;;;;;;;;6237329;28;20037;-65
2021/10/18 01:11:02;;;;;;;32.83;21.25;;;;;;;;;;6240626;28;20469;-65
2021/10/18 01:14:04;;;;;;;38.30;20.85;;;;;;;;;;6258901;28;20170;-66
2021/10/18 01:17:06;;;;;;;35.38;21.23;;;;;;;;;;6240948;28;20037;-65
2021/10/18 01:20:11;;;;;;;34.95;22.17;;;;;;;;;;6252983;28;20052;-67
2021/10/18 01:23:14;;;;;;;35.70;21.25;;;;;;;;;;6242684;28;20046;-65
2021/10/18 01:26:16;;;;;;;29.85;19.50;;;;;;;;;;6243582;28;20101;-65
2021/10/18 01:29:17;;;;;;;31.67;19.27;;;;;;;;;;6255753;28;20061;-65
2021/10/18 01:32:19;;;;;;;32.40;19.35;;;;;;;;;;6236331;28;20589;-64
2021/10/18 01:35:20;;;;;;;31.52;19.25;;;;;;;;;;6242027;28;20137;-67
2021/10/18 01:38:23;;;;;;;30.05;19.55;;;;;;;;;;6255079;28;20047;-64
2021/10/18 01:41:24;;;;;;;31.95;19.80;;;;;;;;;;6244398;28;20041;-65
2021/10/18 01:44:26;;;;;;;31.85;19.33;;;;;;;;;;6252127;28;20037;-64
2021/10/18 01:47:27;;;;;;;33.83;19.63;;;;;;;;;;6235998;28;20110;-65
2021/10/18 01:50:29;;;;;;;37.08;19.38;;;;;;;;;;6234846;28;20045;-66
2021/10/18 01:53:32;;;;;;;29.50;19.00;;;;;;;;;;6241907;28;20072;-65
2021/10/18 01:56:34;;;;;;;31.67;20.02;;;;;;;;;;6234025;28;20041;-65
2021/10/18 01:59:36;;;;;;;31.42;20.08;;;;;;;;;;6246810;28;20064;-66
2021/10/18 02:02:38;;;;;;;28.23;19.35;;;;;;;;;;6230514;28;20045;-64
2021/10/18 02:05:39;;;;;;;33.05;19.60;;;;;;;;;;6234349;28;20040;-64
2021/10/18 02:08:42;;;;;;;32.10;19.38;;;;;;;;;;6245847;28;20045;-65
2021/10/18 02:11:43;;;;;;;31.20;18.67;;;;;;;;;;6235912;28;20053;-63
2021/10/18 02:14:44;;;;;;;29.38;18.42;;;;;;;;;;6247530;28;20059;-64
2021/10/18 02:17:46;;;;;;;31.05;19.38;;;;;;;;;;6231585;28;20094;-64
2021/10/18 02:20:47;;;;;;;28.75;18.83;;;;;;;;;;6237724;28;20056;-63
2021/10/18 02:23:50;;;;;;;27.63;18.77;;;;;;;;;;6249115;28;20206;-63
2021/10/18 02:26:51;;;;;;;28.98;18.77;;;;;;;;;;6237230;28;20059;-64
2021/10/18 02:29:53;;;;;;;30.85;18.65;;;;;;;;;;6245429;28;20059;-63
2021/10/18 02:32:54;;;;;;;25.73;17.65;;;;;;;;;;6228020;28;20128;-64
2021/10/18 02:35:56;;;;;;;31.17;19.27;;;;;;;;;;6233754;28;20045;-63
2021/10/18 02:38:59;;;;;;;27.85;18.48;;;;;;;;;;6247889;28;20036;-66
2021/10/18 02:42:00;;;;;;;29.05;19.60;;;;;;;;;;6229755;28;20037;-64
2021/10/18 02:45:01;;;;;;;26.50;18.73;;;;;;;;;;6245742;28;20041;-65
2021/10/18 02:48:03;;;;;;;29.98;18.73;;;;;;;;;;6230965;28;20132;-64
2021/10/18 02:51:05;;;;;;;27.08;18.65;;;;;;;;;;6235168;28;20530;-63
2021/10/18 02:54:08;;;;;;;26.33;18.10;;;;;;;;;;6243221;28;20493;-63
2021/10/18 02:57:09;;;;;;;28.67;18.00;;;;;;;;;;6239014;28;20767;-64
2021/10/18 03:00:11;;;;;;;27.20;18.88;;;;;;;;;;6241311;28;21048;-65
2021/10/18 03:03:12;;;;;;;30.27;18.92;;;;;;;;;;6235914;28;20375;-65
2021/10/18 03:06:14;;;;;;;28.20;18.73;;;;;;;;;;6229954;28;20409;-63
2021/10/18 03:09:17;;;;;;;28.45;18.98;;;;;;;;;;6244893;28;20057;-63
2021/10/18 03:12:18;;;;;;;26.50;18.70;;;;;;;;;;6232774;28;20118;-63
2021/10/18 03:15:20;;;;;;;28.90;18.83;;;;;;;;;;6239349;28;20145;-65
2021/10/18 03:18:21;;;;;;;29.70;19.55;;;;;;;;;;6238453;28;20106;-65
2021/10/18 03:21:22;;;;;;;33.58;20.33;;;;;;;;;;6235138;28;20106;-65
2021/10/18 03:24:25;;;;;;;31.42;20.00;;;;;;;;;;6241124;28;20061;-65
2021/10/18 03:27:27;;;;;;;29.25;19.17;;;;;;;;;;6240318;28;20227;-65
2021/10/18 03:30:28;;;;;;;30.60;19.75;;;;;;;;;;6231759;28;20037;-64
2021/10/18 03:33:30;;;;;;;29.65;19.83;;;;;;;;;;6241599;28;20128;-65
2021/10/18 03:36:31;;;;;;;30.75;20.15;;;;;;;;;;6232183;28;20046;-63
2021/10/18 03:39:34;;;;;;;32.60;21.80;;;;;;;;;;6241531;28;20045;-63
2021/10/18 03:42:37;;;;;;;32.83;20.83;;;;;;;;;;6238442;28;20132;-65
2021/10/18 03:45:39;;;;;;;24.37;16.07;;;;;;;;;;6239315;28;20064;-65
2021/10/18 03:48:40;;;;;;;31.45;20.60;;;;;;;;;;6254327;28;20045;-65
2021/10/18 03:51:42;;;;;;;32.70;21.58;;;;;;;;;;6243742;28;20045;-65
2021/10/18 03:54:44;;;;;;;32.33;21.33;;;;;;;;;;6249790;28;20507;-67
2021/10/18 03:57:46;;;;;;;36.35;22.33;;;;;;;;;;6243408;28;20462;-65
2021/10/18 04:00:47;;;;;;;32.83;22.13;;;;;;;;;;6225303;28;20044;-65
2021/10/18 04:03:49;;;;;;;36.85;21.75;;;;;;;;;;6251361;28;20048;-65
2021/10/18 04:06:50;;;;;;;36.20;21.95;;;;;;;;;;6249356;28;20042;-64
2021/10/18 04:09:53;;;;;;;33.10;21.33;;;;;;;;;;6259700;28;20045;-64
2021/10/18 04:12:54;;;;;;;35.55;21.83;;;;;;;;;;6242232;28;20050;-64
2021/10/18 04:15:55;;;;;;;38.28;23.73;;;;;;;;;;6241283;28;20115;-65
2021/10/18 04:18:57;;;;;;;36.15;21.00;;;;;;;;;;6242555;28;20111;-65
2021/10/18 04:21:58;;;;;;;35.55;23.02;;;;;;;;;;6237410;28;20065;-65
2021/10/18 04:25:01;;;;;;;37.17;21.83;;;;;;;;;;6247876;28;20054;-66
2021/10/18 04:28:02;;;;;;;35.00;21.90;;;;;;;;;;6235659;28;20045;-64
2021/10/18 04:31:04;;;;;;;40.40;23.42;;;;;;;;;;6234987;28;20037;-65
2021/10/18 04:34:05;;;;;;;35.45;22.20;;;;;;;;;;6256119;28;20041;-65
2021/10/18 04:37:06;;;;;;;34.65;22.42;;;;;;;;;;6245753;28;20052;-65
2021/10/18 04:40:09;;;;;;;34.08;21.83;;;;;;;;;;6244097;28;20144;-67
2021/10/18 04:43:11;;;;;;;36.45;22.08;;;;;;;;;;6242535;28;20063;-65
2021/10/18 04:46:12;;;;;;;34.45;22.60;;;;;;;;;;6234376;28;20040;-65
2021/10/18 04:49:14;;;;;;;43.85;22.58;;;;;;;;;;6243414;28;20049;-65
2021/10/18 04:52:15;;;;;;;32.80;21.58;;;;;;;;;;6233679;28;20045;-66
2021/10/18 04:55:18;;;;;;;38.78;24.23;;;;;;;;;;6238193;28;20578;-67
2021/10/18 04:58:19;;;;;;;41.63;24.90;;;;;;;;;;6244868;28;20037;-65
2021/10/18 05:01:21;;;;;;;39.38;24.30;;;;;;;;;;6233861;28;20511;-64
2021/10/18 05:04:22;;;;;;;38.40;23.63;;;;;;;;;;6244327;28;20076;-65
2021/10/18 05:07:23;;;;;;;38.08;24.67;;;;;;;;;;6236265;28;20160;-64
2021/10/18 05:10:26;;;;;;;38.72;25.05;;;;;;;;;;6241227;28;20175;-65
2021/10/18 05:13:27;;;;;;;37.75;23.35;;;;;;;;;;6249422;28;20551;-64
2021/10/18 05:16:29;;;;;;;46.42;26.55;;;;;;;;;;6231690;28;20049;-64
2021/10/18 05:19:30;;;;;;;38.20;24.38;;;;;;;;;;6245508;28;20055;-63
2021/10/18 05:22:32;;;;;;;36.08;25.40;;;;;;;;;;6233465;28;20480;-65
2021/10/18 05:25:34;;;;;;;37.50;24.85;;;;;;;;;;6239745;28;20049;-63
2021/10/18 05:28:36;;;;;;;36.95;24.17;;;;;;;;;;6246545;28;20041;-64
2021/10/18 05:31:37;;;;;;;41.45;23.63;;;;;;;;;;6238042;28;20063;-64
2021/10/18 05:34:38;;;;;;;39.47;23.83;;;;;;;;;;6243841;28;20041;-63
2021/10/18 05:37:43;;;;;;;38.13;23.50;;;;;;;;;;6230601;28;20048;-64
2021/10/18 05:40:44;;;;;;;;;;;;;;;;;;6236469;28;21684;-62
2021/10/18 05:43:47;;;;;;;39.90;23.75;;;;;;;;;;6249376;28;19921;-63
2021/10/18 05:46:48;;;;;;;37.08;22.40;;;;;;;;;;6229975;28;20502;-64
2021/10/18 05:49:50;;;;;;;33.50;22.08;;;;;;;;;;6244543;28;20045;-63
2021/10/18 05:52:51;;;;;;;33.97;22.65;;;;;;;;;;6232572;28;20038;-63
2021/10/18 05:55:52;;;;;;;36.08;22.35;;;;;;;;;;6236461;28;20045;-64
2021/10/18 05:58:55;;;;;;;36.22;22.50;;;;;;;;;;6246001;28;20185;-63
2021/10/18 06:01:57;;;;;;;38.55;22.10;;;;;;;;;;6237409;28;20054;-63
2021/10/18 06:04:58;;;;;;;36.53;23.08;;;;;;;;;;6247093;28;20086;-64
2021/10/18 06:08:06;;;;;;;44.53;23.73;;;;;;;;;;6233383;28;20167;-63
2021/10/18 06:11:07;;;;;;;34.97;22.20;;;;;;;;;;6233563;28;20680;-63
2021/10/18 06:14:10;;;;;;;40.80;23.40;;;;;;;;;;6250659;28;20481;-63
2021/10/18 06:17:11;;;;;;;40.60;22.52;;;;;;;;;;6233291;28;20049;-63
2021/10/18 06:20:14;;;;;;;38.63;23.40;;;;;;;;;;6239561;28;20568;-64
2021/10/18 06:23:15;;;;;;;39.42;23.58;;;;;;;;;;6241795;28;20548;-63
2021/10/18 06:26:17;;;;;;;38.65;22.83;;;;;;;;;;6246141;28;20069;-63
2021/10/18 06:29:19;;;;;;;38.28;23.02;;;;;;;;;;6248562;28;20154;-64
2021/10/18 06:32:21;;;;;;;37.85;23.48;;;;;;;;;;6235897;28;20151;-64
2021/10/18 06:35:22;;;;;;;33.38;22.92;;;;;;;;;;6241080;28;20485;-64
2021/10/18 06:38:24;;;;;;;34.25;22.55;;;;;;;;;;6246517;28;20053;-64
2021/10/18 06:41:27;;;;;;;40.08;23.17;;;;;;;;;;6239054;28;20052;-63
2021/10/18 06:44:30;;;;;;;31.92;21.42;;;;;;;;;;6245148;28;21610;-65
2021/10/18 06:47:31;;;;;;;33.90;22.35;;;;;;;;;;6235644;28;20110;-64
2021/10/18 06:50:33;;;;;;;33.90;21.45;;;;;;;;;;6240281;28;20147;-64
2021/10/18 06:53:36;;;;;;;37.00;22.45;;;;;;;;;;6249044;28;20049;-64
2021/10/18 06:56:43;;;;;;;32.92;22.83;;;;;;;;;;6235767;28;20053;-65
2021/10/18 06:59:46;;;;;;;33.75;23.00;;;;;;;;;;6247663;28;20065;-64
2021/10/18 07:02:47;;;;;;;32.85;21.55;;;;;;;;;;6224149;28;20049;-64
2021/10/18 07:05:49;;;;;;;32.33;22.63;;;;;;;;;;6234521;28;20124;-64
2021/10/18 07:08:50;;;;;;;32.83;23.00;;;;;;;;;;6243549;28;20134;-65
2021/10/18 07:11:52;;;;;;;31.13;22.48;;;;;;;;;;6237449;28;20049;-66
2021/10/18 07:14:55;;;;;;;30.50;22.15;;;;;;;;;;6247482;28;20049;-64
2021/10/18 07:17:56;;;;;;;32.73;23.17;;;;;;;;;;6223731;28;20048;-65
2021/10/18 07:20:57;;;;;;;36.97;22.02;;;;;;;;;;6235421;28;20173;-64
2021/10/18 07:24:03;;;;;;;35.83;23.38;;;;;;;;;;6256072;28;20057;-64
2021/10/18 07:27:05;;;;;;;36.45;21.63;;;;;;;;;;6240674;28;20084;-64
2021/10/18 07:30:08;;;;;;;34.30;22.90;;;;;;;;;;6245063;28;20113;-66
2021/10/18 07:33:10;;;;;;;33.30;23.33;;;;;;;;;;6238785;28;20195;-65
2021/10/18 07:36:18;;;;;;;31.23;21.80;;;;;;;;;;6228794;28;20045;-64
2021/10/18 07:39:21;;;;;;;30.85;20.95;;;;;;;;;;6242970;28;20045;-64
2021/10/18 07:42:22;;;;;;;31.73;21.63;;;;;;;;;;6233558;28;20525;-64
2021/10/18 07:45:25;;;;;;;29.33;22.05;;;;;;;;;;6241733;28;20053;-65
2021/10/18 07:48:26;;;;;;;22.23;16.38;;;;;;;;;;6247969;28;20045;-65
2021/10/18 07:51:28;;;;;;;22.30;15.68;;;;;;;;;;6263917;28;20056;-65
2021/10/18 07:54:30;;;;;;;29.92;17.83;;;;;;;;;;6252379;28;20041;-65
2021/10/18 07:57:32;;;;;;;22.00;15.40;;;;;;;;;;6252504;28;20052;-64
2021/10/18 08:00:34;;;;;;;26.98;18.60;;;;;;;;;;6255317;28;20028;-66
2021/10/18 08:03:36;;;;;;;24.50;17.60;;;;;;;;;;6243960;28;20076;-64
2021/10/18 08:06:37;;;;;;;26.67;17.70;;;;;;;;;;6237423;28;20124;-64
2021/10/18 08:09:39;;;;;;;23.27;16.90;;;;;;;;;;6245450;28;20132;-65
2021/10/18 08:12:40;;;;;;;21.52;16.17;;;;;;;;;;6235150;28;20195;-64
2021/10/18 08:15:43;;;;;;;18.95;14.57;;;;;;;;;;6236529;28;20432;-67
2021/10/18 08:18:44;;;;;;;20.88;14.68;;;;;;;;;;6242122;28;20041;-64
2021/10/18 08:21:45;;;;;;;23.40;15.95;;;;;;;;;;6240876;28;20045;-65
2021/10/18 08:24:47;;;;;;;26.85;19.38;;;;;;;;;;6243948;28;20049;-64
2021/10/18 08:27:48;;;;;;;28.27;19.90;;;;;;;;;;6236175;28;20443;-64
2021/10/18 08:30:51;;;;;;;32.03;21.17;;;;;;;;;;6239577;28;20043;-64
2021/10/18 08:33:52;;;;;;;24.57;19.57;;;;;;;;;;6249831;28;20494;-64
2021/10/18 08:36:54;;;;;;;25.58;19.13;;;;;;;;;;6237938;28;20075;-65
2021/10/18 08:40:05;;;;;;;29.17;19.60;;;;;;;;;;6244546;28;20448;-64
2021/10/18 08:43:12;;;;;;;25.70;18.98;;;;;;;;;;6239783;28;20194;-65
2021/10/18 08:46:17;;;;;;;28.98;21.13;;;;;;;;;;6234175;28;20508;-65
2021/10/18 08:49:19;;;;;;;27.27;19.88;;;;;;;;;;6242978;28;20515;-65
2021/10/18 08:52:21;;;;;;;26.85;21.02;;;;;;;;;;6231200;28;20131;-66
2021/10/18 08:55:23;;;;;;;27.90;20.58;;;;;;;;;;6237228;28;20053;-65
2021/10/18 08:58:24;;;;;;;27.75;20.02;;;;;;;;;;6242697;28;20396;-64
2021/10/18 09:01:41;;;;;;;28.45;20.73;;;;;;;;;;6233540;28;20048;-64
2021/10/18 09:04:42;;;;;;;29.27;21.45;;;;;;;;;;6243985;28;20094;-64
2021/10/18 09:07:43;;;;;;;33.65;22.02;;;;;;;;;;6238834;28;20119;-65
2021/10/18 09:10:47;;;;;;;29.80;22.30;;;;;;;;;;6241069;28;20045;-64
2021/10/18 09:13:59;;;;;;;70.32;23.50;;;;;;;;;;6250530;28;20048;-65
2021/10/18 09:17:02;;;;;;;31.33;21.67;;;;;;;;;;6222604;28;20504;-66
2021/10/18 09:20:23;;;;;;;34.70;21.23;;;;;;;;;;6245598;28;20052;-66
2021/10/18 09:23:27;;;;;;;27.80;19.95;;;;;;;;;;6252729;28;20143;-65
2021/10/18 09:26:31;;;;;;;29.23;21.33;;;;;;;;;;6236797;28;20141;-65
2021/10/18 09:29:35;;;;;;;25.05;19.60;;;;;;;;;;6247197;28;20148;-65
2021/10/18 09:32:38;;;;;;;25.75;20.70;;;;;;;;;;6230292;28;20041;-65
2021/10/18 09:35:40;;;;;;;25.95;20.05;;;;;;;;;;6232899;28;20102;-65
2021/10/18 09:38:42;;;;;;;29.93;20.77;;;;;;;;;;6243979;28;20183;-65
2021/10/18 09:41:44;;;;;;;27.23;20.08;;;;;;;;;;6235335;28;20839;-65
2021/10/18 10:52:03;;;;;;;26.48;21.13;;;;;;;;;;6240305;28;20049;-65
2021/10/18 10:55:19;;;;;;;26.35;19.17;;;;;;;;;;6251079;28;20381;-67
2021/10/18 10:58:35;;;;;;;22.63;18.50;;;;;;;;;;6250674;28;20045;-64
2021/10/18 11:01:50;;;;;;;22.35;18.40;;;;;;;;;;6235585;28;20642;-66
2021/10/18 11:04:54;;;;;;;27.13;20.50;;;;;;;;;;6253517;28;20509;-65
2021/10/18 11:07:55;;;;;;;25.70;19.48;;;;;;;;;;6225711;28;20136;-68
2021/10/18 11:11:05;;;;;;;24.83;20.17;;;;;;;;;;6233705;28;20053;-67
2021/10/18 11:14:07;;;;;;;24.88;20.27;;;;;;;;;;6245079;28;20117;-67
2021/10/18 11:17:08;;;;;;;20.73;17.60;;;;;;;;;;6224686;28;20045;-67
2021/10/18 11:20:11;;;;;;;21.92;18.55;;;;;;;;;;6238039;28;20136;-66
2021/10/18 11:23:12;;;;;;;20.20;18.00;;;;;;;;;;6242819;28;20131;-65
2021/10/18 11:26:15;;;;;;;28.07;19.87;;;;;;;;;;6234171;28;20053;-65
2021/10/18 11:29:17;;;;;;;28.70;20.95;;;;;;;;;;6248813;28;20095;-65
2021/10/18 11:32:20;;;;;;;22.42;18.08;;;;;;;;;;6226845;28;20131;-64
2021/10/18 11:35:21;;;;;;;25.20;19.48;;;;;;;;;;6233237;28;20052;-67
2021/10/18 11:38:26;;;;;;;25.37;19.83;;;;;;;;;;6252972;28;20045;-67
2021/10/18 11:41:28;;;;;;;24.48;20.02;;;;;;;;;;6244788;28;20549;-65
2021/10/18 11:44:45;;;;;;;30.13;21.00;;;;;;;;;;6257986;28;20107;-65
2021/10/18 11:47:47;;;;;;;23.90;19.33;;;;;;;;;;6238668;28;20045;-64
2021/10/18 11:50:49;;;;;;;22.60;17.85;;;;;;;;;;6233786;28;20052;-63
2021/10/18 11:53:53;;;;;;;25.30;19.40;;;;;;;;;;6253918;28;20119;-64
2021/10/18 11:56:57;;;;;;;25.65;19.13;;;;;;;;;;6244674;28;20102;-64
2021/10/18 11:59:59;;;;;;;26.48;21.05;;;;;;;;;;6259751;28;20051;-64
2021/10/18 12:03:02;;;;;;;23.75;19.70;;;;;;;;;;6237271;28;20045;-65
2021/10/18 12:06:04;;;;;;;26.58;20.80;;;;;;;;;;6236191;28;20553;-65
2021/10/18 12:09:06;;;;;;;24.80;19.00;;;;;;;;;;6257359;28;20049;-67
2021/10/18 12:12:13;;;;;;;26.42;20.00;;;;;;;;;;6245952;28;20049;-64
2021/10/18 12:15:15;;;;;;;26.73;19.25;;;;;;;;;;6247041;28;20187;-67
2021/10/18 12:18:17;;;;;;;25.63;19.07;;;;;;;;;;6244879;28;20049;-65
2021/10/18 12:21:21;;;;;;;23.13;17.55;;;;;;;;;;6235923;28;20045;-67
2021/10/18 12:24:22;;;;;;;25.63;19.52;;;;;;;;;;6253820;28;20045;-65
2021/10/18 12:27:27;;;;;;;22.67;18.83;;;;;;;;;;6247141;28;20156;-64
2021/10/18 12:30:39;;;;;;;21.27;17.50;;;;;;;;;;6247067;28;20568;-64
2021/10/18 12:33:40;;;;;;;24.63;19.52;;;;;;;;;;6245282;28;20049;-65
2021/10/18 12:36:56;;;;;;;25.65;19.42;;;;;;;;;;6225862;28;20056;-66
2021/10/18 12:40:01;;;;;;;28.30;19.48;;;;;;;;;;6246549;28;20045;-64
2021/10/18 12:43:04;;;;;;;23.50;19.52;;;;;;;;;;6241446;28;20041;-65
2021/10/18 12:46:19;;;;;;;23.15;17.23;;;;;;;;;;6233220;28;20116;-65
2021/10/18 12:49:27;;;;;;;24.80;17.00;;;;;;;;;;6243455;28;20041;-64
2021/10/18 12:52:30;;;;;;;26.20;16.17;;;;;;;;;;6237923;28;20049;-66
2021/10/18 12:55:32;;;;;;;25.23;19.55;;;;;;;;;;6242967;28;20043;-66
2021/10/18 12:58:37;;;;;;;24.30;18.42;;;;;;;;;;6246201;28;20057;-65
2021/10/18 13:01:38;;;;;;;26.20;18.35;;;;;;;;;;6230298;28;20172;-64
2021/10/18 13:04:40;;;;;;;31.65;20.98;;;;;;;;;;6250599;28;20131;-64
2021/10/18 13:07:43;;;;;;;26.67;19.02;;;;;;;;;;6242470;28;20103;-65
2021/10/18 13:10:45;;;;;;;23.25;15.90;;;;;;;;;;6242527;28;20044;-65
2021/10/18 13:13:49;;;;;;;27.23;20.27;;;;;;;;;;6252060;28;20045;-66
2021/10/18 13:16:50;;;;;;;25.52;18.65;;;;;;;;;;6237976;28;20033;-65
2021/10/18 13:19:52;;;;;;;27.88;19.15;;;;;;;;;;6242454;28;20041;-65
2021/10/18 13:22:54;;;;;;;25.60;19.90;;;;;;;;;;6234091;28;20099;-65
2021/10/18 13:25:55;;;;;;;24.05;17.40;;;;;;;;;;6235086;28;20179;-64
2021/10/18 13:28:58;;;;;;;23.88;18.58;;;;;;;;;;6256274;28;20076;-65
2021/10/18 13:32:01;;;;;;;21.52;17.13;;;;;;;;;;6231139;28;20431;-65
2021/10/18 13:35:03;;;;;;;20.00;15.35;;;;;;;;;;6244517;28;20339;-65
2021/10/18 13:38:07;;;;;;;25.70;17.65;;;;;;;;;;6240497;28;20048;-66
2021/10/18 13:41:08;;;;;;;25.60;18.88;;;;;;;;;;6233457;28;20049;-65
2021/10/18 13:44:11;;;;;;;28.10;18.73;;;;;;;;;;6248267;28;20218;-65
2021/10/18 13:47:13;;;;;;;23.10;16.10;;;;;;;;;;6231676;28;20103;-65
2021/10/18 13:50:14;;;;;;;21.85;16.58;;;;;;;;;;6242324;28;20187;-65
2021/10/18 13:53:19;;;;;;;22.30;17.70;;;;;;;;;;6244812;28;20090;-65
2021/10/18 13:56:21;;;;;;;25.65;16.95;;;;;;;;;;6242685;28;20060;-64
2021/10/18 13:59:23;;;;;;;24.77;16.77;;;;;;;;;;6255700;28;20429;-64
2021/10/18 14:02:25;;;;;;;;;;;;;;;;;;6232885;28;20501;-65
2021/10/18 14:05:26;;;;;;;30.20;17.77;;;;;;;;;;6235498;28;19917;-65
2021/10/18 14:08:27;;;;;;;22.55;15.85;;;;;;;;;;6244308;28;20036;-66
2021/10/18 14:11:29;;;;;;;23.52;16.33;;;;;;;;;;6247707;28;20059;-66
2021/10/18 14:14:32;;;;;;;22.20;15.68;;;;;;;;;;6249260;28;20053;-66
2021/10/18 14:17:33;;;;;;;;;;;;;;;;;;6226686;28;20847;-67
2021/10/18 14:20:34;;;;;;;22.02;17.30;;;;;;;;;;6230049;28;19933;-67
2021/10/18 14:23:36;;;;;;;25.60;15.85;;;;;;;;;;6243932;28;20049;-65
2021/10/18 14:26:38;;;;;;;21.45;15.75;;;;;;;;;;6240423;28;20049;-66
2021/10/18 14:29:41;;;;;;;23.25;16.48;;;;;;;;;;6244397;28;20555;-65
2021/10/18 14:32:42;;;;;;;24.65;16.73;;;;;;;;;;6227916;28;20057;-66
2021/10/18 14:35:44;;;;;;;22.02;17.73;;;;;;;;;;6229252;28;20565;-69
2021/10/18 14:38:52;;;;;;;27.73;19.35;;;;;;;;;;6239456;28;20095;-65
2021/10/18 14:41:53;;;;;;;22.05;16.52;;;;;;;;;;6236292;28;20049;-66
2021/10/18 14:44:56;;;;;;;25.02;17.65;;;;;;;;;;6246193;28;20061;-65
2021/10/18 14:47:57;;;;;;;23.13;16.38;;;;;;;;;;6225906;28;20499;-68
2021/10/18 14:50:59;;;;;;;25.13;17.83;;;;;;;;;;6226570;28;20144;-65
2021/10/18 14:54:03;;;;;;;25.77;16.55;;;;;;;;;;6244525;28;20311;-66
2021/10/18 14:57:05;;;;;;;26.95;18.58;;;;;;;;;;6230692;28;20046;-66
2021/10/18 15:00:08;;;;;;;23.77;17.35;;;;;;;;;;6235530;28;20138;-69
2021/10/18 15:03:10;;;;;;;25.05;17.40;;;;;;;;;;6241269;28;20420;-66
2021/10/18 15:06:12;;;;;;;31.40;18.92;;;;;;;;;;6232383;28;20057;-66
2021/10/18 15:09:13;;;;;;;28.50;19.10;;;;;;;;;;6238526;28;20061;-66
2021/10/18 15:12:16;;;;;;;29.98;20.02;;;;;;;;;;6224803;28;20118;-67
2021/10/18 15:15:21;;;;;;;31.42;20.65;;;;;;;;;;6238232;28;20052;-66
2021/10/18 15:18:22;;;;;;;27.80;18.92;;;;;;;;;;6245029;28;20049;-66
2021/10/18 15:21:24;;;;;;;29.25;19.30;;;;;;;;;;6231281;28;20045;-66
2021/10/18 15:24:25;;;;;;;26.15;17.55;;;;;;;;;;6238248;28;20127;-67
2021/10/18 15:27:27;;;;;;;22.90;16.35;;;;;;;;;;6241939;28;20041;-66
2021/10/18 15:30:30;;;;;;;27.73;17.70;;;;;;;;;;6247973;28;20345;-67
2021/10/18 15:33:31;;;;;;;31.40;19.85;;;;;;;;;;6234560;28;20076;-69
2021/10/18 15:36:33;;;;;;;26.45;18.35;;;;;;;;;;6229515;28;20065;-66
2021/10/18 15:39:35;;;;;;;31.17;19.27;;;;;;;;;;6244652;28;20128;-67
2021/10/18 15:42:37;;;;;;;27.05;18.05;;;;;;;;;;6232004;28;20120;-67
2021/10/18 15:45:40;;;;;;;28.67;19.88;;;;;;;;;;6231154;28;20053;-67
2021/10/18 15:48:41;;;;;;;29.90;21.38;;;;;;;;;;6240639;28;20187;-67
2021/10/18 15:51:43;;;;;;;31.13;20.77;;;;;;;;;;6231368;28;20556;-67
2021/10/18 15:54:44;;;;;;;30.67;20.25;;;;;;;;;;6247443;28;20053;-66
2021/10/18 15:57:46;;;;;;;29.05;21.60;;;;;;;;;;6230342;28;20519;-65
2021/10/18 16:00:48;;;;;;;30.80;20.38;;;;;;;;;;6221279;28;20131;-66
2021/10/18 16:03:50;;;;;;;34.92;21.52;;;;;;;;;;6238623;28;20052;-65
2021/10/18 16:06:51;;;;;;;29.10;22.45;;;;;;;;;;6233879;28;20056;-65
2021/10/18 16:09:53;;;;;;;31.65;21.52;;;;;;;;;;6257863;28;20118;-65
2021/10/18 16:12:54;;;;;;;34.17;23.75;;;;;;;;;;6234879;28;20792;-66
2021/10/18 16:15:57;;;;;;;33.08;23.52;;;;;;;;;;6233053;28;20049;-65
2021/10/18 16:19:00;;;;;;;37.75;24.70;;;;;;;;;;6244397;28;20089;-67
2021/10/18 16:22:02;;;;;;;;;;;;;;;;;;6235091;28;20045;-65
2021/10/18 16:25:05;;;;;;;38.17;23.23;;;;;;;;;;6251612;28;20601;-66
2021/10/18 16:28:07;;;;;;;35.40;23.13;;;;;;;;;;6239511;28;20057;-65
2021/10/18 16:31:10;;;;;;;32.45;21.98;;;;;;;;;;6233902;28;20139;-65
2021/10/18 16:34:12;;;;;;;38.85;24.35;;;;;;;;;;6251708;28;20049;-66
2021/10/18 16:37:13;;;;;;;35.53;24.42;;;;;;;;;;6248036;28;20522;-64
2021/10/18 16:40:15;;;;;;;36.22;23.92;;;;;;;;;;6242546;28;20052;-67
2021/10/18 16:43:16;;;;;;;35.40;22.75;;;;;;;;;;6246171;28;20401;-64
2021/10/18 16:46:20;;;;;;;36.65;23.55;;;;;;;;;;6242511;28;20055;-65
2021/10/18 16:49:21;;;;;;;33.95;22.40;;;;;;;;;;6250578;28;20466;-65
2021/10/18 16:52:23;;;;;;;36.78;22.90;;;;;;;;;;6233858;28;20061;-67
2021/10/18 16:55:24;;;;;;;38.33;22.70;;;;;;;;;;6241841;28;20401;-64
2021/10/18 16:58:25;;;;;;;35.35;23.90;;;;;;;;;;6254325;28;20167;-64
2021/10/18 17:01:28;;;;;;;38.22;23.13;;;;;;;;;;6242162;28;20041;-64
2021/10/18 17:04:30;;;;;;;40.93;25.13;;;;;;;;;;6245352;28;20049;-64
2021/10/18 17:07:31;;;;;;;43.50;24.85;;;;;;;;;;6242076;28;20044;-65
2021/10/18 17:10:32;;;;;;;38.53;23.40;;;;;;;;;;6245601;28;20426;-65
2021/10/18 17:13:34;;;;;;;45.05;23.90;;;;;;;;;;6260312;28;20037;-65
2021/10/18 17:16:37;;;;;;;41.90;24.38;;;;;;;;;;6234930;28;20037;-64
2021/10/18 17:19:41;;;;;;;42.78;24.65;;;;;;;;;;6244266;28;20053;-65
2021/10/18 17:22:42;;;;;;;40.97;25.45;;;;;;;;;;6240241;28;20795;-65
2021/10/18 17:25:44;;;;;;;39.80;24.63;;;;;;;;;;6233768;28;20090;-65
2021/10/18 17:28:45;;;;;;;38.20;24.88;;;;;;;;;;6248204;28;20138;-64
2021/10/18 17:31:49;;;;;;;42.85;25.55;;;;;;;;;;6231694;28;20076;-65
2021/10/18 17:34:50;;;;;;;39.95;24.08;;;;;;;;;;6243210;28;20059;-66
2021/10/18 17:37:51;;;;;;;38.45;23.65;;;;;;;;;;6233841;28;20187;-65
2021/10/18 17:40:53;;;;;;;41.30;25.92;;;;;;;;;;6237465;28;20045;-66
2021/10/18 17:43:54;;;;;;;47.80;26.65;;;;;;;;;;6245778;28;20045;-64
2021/10/18 17:46:57;;;;;;;37.67;25.85;;;;;;;;;;6235373;28;20069;-65
2021/10/18 17:49:58;;;;;;;40.78;24.95;;;;;;;;;;6244200;28;20396;-64
2021/10/18 17:53:00;;;;;;;40.92;25.55;;;;;;;;;;6241375;28;20045;-64
2021/10/18 17:56:01;;;;;;;43.00;25.08;;;;;;;;;;6234966;28;20049;-65
2021/10/18 17:59:03;;;;;;;39.75;25.02;;;;;;;;;;6245367;28;20124;-64
2021/10/18 18:02:06;;;;;;;40.63;25.50;;;;;;;;;;6229404;28;20090;-66
2021/10/18 18:05:08;;;;;;;42.83;25.70;;;;;;;;;;6241521;28;20046;-67
2021/10/18 18:08:09;;;;;;;38.00;25.13;;;;;;;;;;6241219;28;20045;-64
2021/10/18 18:11:11;;;;;;;43.13;26.35;;;;;;;;;;6238786;28;20068;-65
2021/10/18 18:14:12;;;;;;;42.17;26.67;;;;;;;;;;6249513;28;20095;-65
2021/10/18 18:17:15;;;;;;;44.65;25.88;;;;;;;;;;6230397;28;20116;-69
2021/10/18 18:20:16;;;;;;;42.27;26.37;;;;;;;;;;6239570;28;20160;-66
2021/10/18 18:23:18;;;;;;;41.63;26.30;;;;;;;;;;6242199;28;20037;-65
2021/10/18 18:26:21;;;;;;;41.92;26.25;;;;;;;;;;6232129;28;20059;-64
2021/10/18 18:29:22;;;;;;;42.45;25.30;;;;;;;;;;6247702;28;20064;-65
2021/10/18 18:32:25;;;;;;;43.70;26.92;;;;;;;;;;6226956;28;20110;-64
2021/10/18 18:35:27;;;;;;;43.42;26.50;;;;;;;;;;6240598;28;20394;-65
2021/10/18 18:38:28;;;;;;;42.70;26.50;;;;;;;;;;6248122;28;20125;-66
2021/10/18 18:41:30;;;;;;;40.60;26.23;;;;;;;;;;6236292;28;20044;-65
2021/10/18 18:44:31;;;;;;;39.88;27.02;;;;;;;;;;6254754;28;20712;-65
2021/10/18 18:47:35;;;;;;;46.03;28.58;;;;;;;;;;6231183;28;20049;-65
2021/10/18 18:50:36;;;;;;;44.40;27.88;;;;;;;;;;6240925;28;20416;-65